Time;durP1;ratioP1;P1;durP2;ratioP2;P2;SDS_P1;SDS_P2;PMS_P1;PMS_P2;Temp;Humidity;BMP_temperature;BMP_pressure;BME280_temperature;BME280_humidity;BME280_pressure;Samples;Min_cycle;Max_cycle;Signal;HPM_P1;HPM_P2
2022/01/14 00:02:10;;;;;;;8.48;7.43;;;;;;;;;;4995511;28;20618;-81
2022/01/14 00:04:37;;;;;;;8.77;6.82;;;;;;;;;;4995628;28;20214;-80
2022/01/14 00:07:05;;;;;;;7.60;6.50;;;;;;;;;;4995805;28;20710;-82
2022/01/14 00:09:35;;;;;;;11.45;9.02;;;;;;;;;;4995056;28;20247;-80
2022/01/14 00:12:09;;;;;;;12.73;9.15;;;;;;;;;;4995424;28;20254;-81
2022/01/14 00:14:39;;;;;;;12.52;9.18;;;;;;;;;;4995401;28;20238;-81
2022/01/14 00:17:08;;;;;;;11.65;9.02;;;;;;;;;;4995774;28;20235;-80
2022/01/14 00:19:35;;;;;;;9.15;7.65;;;;;;;;;;4995402;28;20555;-80
2022/01/14 00:22:10;;;;;;;10.73;8.77;;;;;;;;;;4995528;28;20219;-81
2022/01/14 00:33:07;;;;;;;12.30;9.25;;;;;;;;;;4999200;28;20215;-82
2022/01/14 00:35:37;;;;;;;10.88;8.68;;;;;;;;;;4998665;28;20219;-81
2022/01/14 00:38:04;;;;;;;12.02;8.80;;;;;;;;;;4995059;28;20671;-81
2022/01/14 00:40:34;;;;;;;10.95;9.05;;;;;;;;;;4996149;28;20640;-81
2022/01/14 00:43:01;;;;;;;8.88;7.55;;;;;;;;;;4995087;28;20234;-81
2022/01/14 00:45:29;;;;;;;7.75;6.82;;;;;;;;;;4995265;28;20220;-82
2022/01/14 00:47:56;;;;;;;10.38;7.65;;;;;;;;;;4995248;28;20200;-81
2022/01/14 00:50:24;;;;;;;8.75;6.28;;;;;;;;;;4994921;28;20204;-82
2022/01/14 00:52:51;;;;;;;10.73;8.98;;;;;;;;;;4995814;28;20230;-81
2022/01/14 00:55:26;;;;;;;10.05;7.22;;;;;;;;;;4994908;28;20251;-81
2022/01/14 01:00:40;;;;;;;9.57;7.90;;;;;;;;;;4995155;28;20210;-81
2022/01/14 01:03:07;;;;;;;7.63;5.90;;;;;;;;;;4994519;28;20266;-81
2022/01/14 01:05:35;;;;;;;11.30;8.18;;;;;;;;;;4995133;28;20363;-80
2022/01/14 01:08:07;;;;;;;7.40;6.00;;;;;;;;;;4994269;28;20211;-80
2022/01/14 01:10:35;;;;;;;11.50;7.70;;;;;;;;;;4994698;28;20204;-82
2022/01/14 01:13:11;;;;;;;12.48;7.90;;;;;;;;;;4994336;28;20214;-81
2022/01/14 01:15:38;;;;;;;8.90;6.97;;;;;;;;;;4995024;28;20227;-81
2022/01/14 01:18:05;;;;;;;6.75;6.05;;;;;;;;;;4995507;28;20230;-80
2022/01/14 01:20:33;;;;;;;9.60;7.03;;;;;;;;;;4994823;28;20207;-81
2022/01/14 01:23:00;;;;;;;8.88;7.60;;;;;;;;;;4994315;28;20484;-81
2022/01/14 01:25:35;;;;;;;7.32;6.18;;;;;;;;;;4994458;28;20223;-81
2022/01/14 01:28:05;;;;;;;7.38;6.65;;;;;;;;;;4994819;28;20207;-81
2022/01/14 01:30:51;;;;;;;9.15;8.20;;;;;;;;;;4994293;28;20246;-80
2022/01/14 01:33:19;;;;;;;10.95;8.45;;;;;;;;;;4993844;28;20212;-81
2022/01/14 01:35:47;;;;;;;9.73;8.15;;;;;;;;;;4994702;28;20266;-81
2022/01/14 01:38:16;;;;;;;9.65;7.72;;;;;;;;;;4993967;28;20232;-81
2022/01/14 01:40:45;;;;;;;9.77;7.50;;;;;;;;;;4994856;28;20207;-81
2022/01/14 01:43:15;;;;;;;5.97;5.22;;;;;;;;;;4994213;28;20629;-81
2022/01/14 01:45:47;;;;;;;7.13;6.43;;;;;;;;;;4993962;28;20227;-80
2022/01/14 01:48:14;;;;;;;6.60;5.13;;;;;;;;;;4994628;28;20210;-81
2022/01/14 01:50:41;;;;;;;7.03;4.82;;;;;;;;;;4993689;28;20738;-81
2022/01/14 01:53:08;;;;;;;6.85;5.90;;;;;;;;;;4993379;28;20211;-81
2022/01/14 01:55:36;;;;;;;6.80;6.20;;;;;;;;;;4993784;28;20638;-81
2022/01/14 01:58:03;;;;;;;5.65;5.10;;;;;;;;;;4993850;28;20285;-81
2022/01/14 02:00:32;;;;;;;4.82;4.40;;;;;;;;;;4994236;28;20200;-81
2022/01/14 02:03:01;;;;;;;4.32;3.92;;;;;;;;;;4994121;28;20262;-83
2022/01/14 02:05:28;;;;;;;4.72;4.20;;;;;;;;;;4994204;28;20227;-82
2022/01/14 02:07:55;;;;;;;6.40;5.47;;;;;;;;;;4993625;28;20246;-81
2022/01/14 02:10:24;;;;;;;5.13;4.57;;;;;;;;;;4994025;28;20258;-81
2022/01/14 02:12:53;;;;;;;5.35;4.25;;;;;;;;;;4993678;28;20270;-81
2022/01/14 02:15:29;;;;;;;5.63;5.15;;;;;;;;;;4994145;28;20229;-80
2022/01/14 02:18:27;;;;;;;7.22;5.72;;;;;;;;;;4994131;28;20227;-80
2022/01/14 02:23:45;;;;;;;5.18;4.68;;;;;;;;;;4994381;28;20219;-81
2022/01/14 02:26:13;;;;;;;6.85;6.22;;;;;;;;;;4993235;28;20230;-82
2022/01/14 02:28:42;;;;;;;7.60;6.85;;;;;;;;;;4993785;28;20203;-81
2022/01/14 02:31:10;;;;;;;9.35;7.22;;;;;;;;;;4993764;28;20290;-81
2022/01/14 02:33:37;;;;;;;9.27;6.97;;;;;;;;;;4993332;28;20211;-80
2022/01/14 02:36:07;;;;;;;8.70;6.55;;;;;;;;;;4993816;28;20715;-81
2022/01/14 02:38:34;;;;;;;8.07;7.18;;;;;;;;;;4993804;28;20228;-81
2022/01/14 02:41:01;;;;;;;8.60;7.32;;;;;;;;;;4993568;28;20203;-80
2022/01/14 02:43:29;;;;;;;5.80;5.13;;;;;;;;;;4993182;28;20204;-80
2022/01/14 02:45:57;;;;;;;4.82;4.43;;;;;;;;;;4993202;28;20224;-81
2022/01/14 02:48:27;;;;;;;4.07;3.65;;;;;;;;;;4993348;28;20204;-82
2022/01/14 02:50:59;;;;;;;5.05;4.55;;;;;;;;;;4993718;28;20256;-81
2022/01/14 02:53:43;;;;;;;4.93;4.43;;;;;;;;;;4993660;28;20204;-80
2022/01/14 02:56:20;;;;;;;7.78;6.60;;;;;;;;;;4993662;28;20231;-81
2022/01/14 02:58:49;;;;;;;5.40;4.57;;;;;;;;;;4993088;28;20282;-81
2022/01/14 03:01:21;;;;;;;6.72;5.80;;;;;;;;;;4996227;28;20668;-81
2022/01/14 03:03:49;;;;;;;5.90;5.15;;;;;;;;;;4997001;28;20208;-81
2022/01/14 03:06:17;;;;;;;8.73;7.22;;;;;;;;;;4997099;28;20269;-80
2022/01/14 03:08:46;;;;;;;5.90;5.25;;;;;;;;;;4997117;28;20208;-80
2022/01/14 03:11:17;;;;;;;7.43;5.82;;;;;;;;;;4996762;28;20203;-82
2022/01/14 03:13:45;;;;;;;6.18;5.05;;;;;;;;;;4996535;28;20274;-80
2022/01/14 03:16:14;;;;;;;4.30;3.90;;;;;;;;;;4996448;28;20219;-80
2022/01/14 03:18:44;;;;;;;5.30;4.75;;;;;;;;;;4996852;28;20864;-80
2022/01/14 03:21:15;;;;;;;4.72;4.32;;;;;;;;;;4997305;28;20676;-81
2022/01/14 03:23:47;;;;;;;5.90;5.22;;;;;;;;;;4996393;28;20203;-81
2022/01/14 03:26:16;;;;;;;5.10;4.60;;;;;;;;;;4996907;28;20297;-81
2022/01/14 03:28:44;;;;;;;7.18;5.05;;;;;;;;;;4996561;28;20204;-81
2022/01/14 03:31:12;;;;;;;5.07;4.57;;;;;;;;;;4996405;28;20211;-80
2022/01/14 03:33:39;;;;;;;7.05;6.35;;;;;;;;;;4996528;28;20222;-80
2022/01/14 03:36:08;;;;;;;8.13;5.63;;;;;;;;;;4996431;28;20250;-81
2022/01/14 03:38:36;;;;;;;9.27;6.15;;;;;;;;;;4996843;28;20258;-81
2022/01/14 03:41:05;;;;;;;8.60;6.47;;;;;;;;;;4996308;28;20204;-80
2022/01/14 03:43:35;;;;;;;9.20;6.75;;;;;;;;;;4996090;28;20262;-81
2022/01/14 03:46:02;;;;;;;7.80;5.82;;;;;;;;;;4996203;28;20228;-80
2022/01/14 03:48:30;;;;;;;7.53;6.40;;;;;;;;;;4996182;28;20196;-80
2022/01/14 03:50:57;;;;;;;8.50;5.55;;;;;;;;;;4995609;28;20207;-80
2022/01/14 03:53:24;;;;;;;7.40;6.40;;;;;;;;;;4995988;28;20204;-80
2022/01/14 03:55:51;;;;;;;5.57;5.07;;;;;;;;;;4996026;28;20230;-81
2022/01/14 03:58:20;;;;;;;6.07;4.85;;;;;;;;;;4995472;28;20227;-81
2022/01/14 04:00:47;;;;;;;4.72;3.85;;;;;;;;;;4995551;28;20662;-80
2022/01/14 04:03:15;;;;;;;3.90;3.60;;;;;;;;;;4996424;28;20208;-80
2022/01/14 04:05:42;;;;;;;3.95;3.58;;;;;;;;;;4995655;28;20236;-79
2022/01/14 04:08:09;;;;;;;3.70;3.40;;;;;;;;;;4995481;28;20262;-80
2022/01/14 04:10:37;;;;;;;3.45;3.15;;;;;;;;;;4995735;28;20200;-81
2022/01/14 04:13:11;;;;;;;3.08;2.75;;;;;;;;;;4994921;28;20203;-80
2022/01/14 04:15:43;;;;;;;4.97;4.45;;;;;;;;;;4995972;28;20254;-80
2022/01/14 04:18:13;;;;;;;4.97;4.47;;;;;;;;;;4995430;28;20699;-81
2022/01/14 04:20:42;;;;;;;4.00;3.70;;;;;;;;;;4995320;28;20199;-81
2022/01/14 04:23:12;;;;;;;6.22;5.60;;;;;;;;;;4995593;28;20202;-81
2022/01/14 04:25:40;;;;;;;5.50;4.88;;;;;;;;;;4995295;28;20231;-81
2022/01/14 04:28:09;;;;;;;5.15;4.18;;;;;;;;;;4995785;28;20200;-81
2022/01/14 04:30:36;;;;;;;5.13;4.63;;;;;;;;;;4995588;28;20204;-80
2022/01/14 04:33:06;;;;;;;3.45;3.15;;;;;;;;;;4995228;28;20251;-81
2022/01/14 04:35:34;;;;;;;5.32;4.82;;;;;;;;;;4995836;28;20231;-82
2022/01/14 04:38:02;;;;;;;4.60;4.20;;;;;;;;;;4995158;28;20208;-82
2022/01/14 04:40:29;;;;;;;4.50;4.10;;;;;;;;;;4995170;28;20204;-81
2022/01/14 04:42:58;;;;;;;4.85;4.45;;;;;;;;;;4995099;28;20232;-81
2022/01/14 04:45:39;;;;;;;3.88;3.38;;;;;;;;;;4995026;28;20227;-82
2022/01/14 04:48:10;;;;;;;5.82;4.65;;;;;;;;;;4995910;28;20207;-81
2022/01/14 04:50:38;;;;;;;4.03;3.63;;;;;;;;;;4995270;28;20200;-82
2022/01/14 04:53:05;;;;;;;5.10;4.60;;;;;;;;;;4995030;28;20211;-81
2022/01/14 04:55:32;;;;;;;6.15;5.53;;;;;;;;;;4994820;28;20219;-81
2022/01/14 04:58:00;;;;;;;4.90;3.58;;;;;;;;;;4995365;28;20254;-81
2022/01/14 05:00:28;;;;;;;2.75;2.55;;;;;;;;;;4994235;28;20304;-81
2022/01/14 05:02:57;;;;;;;3.25;2.95;;;;;;;;;;4994807;28;20207;-81
2022/01/14 05:05:29;;;;;;;4.43;4.03;;;;;;;;;;4994846;28;20219;-81
2022/01/14 05:07:57;;;;;;;4.18;3.78;;;;;;;;;;4994979;28;20239;-81
2022/01/14 05:10:35;;;;;;;4.13;3.65;;;;;;;;;;4994672;28;20203;-82
2022/01/14 05:13:03;;;;;;;3.90;3.50;;;;;;;;;;4994834;28;20235;-81
2022/01/14 05:15:31;;;;;;;3.83;3.15;;;;;;;;;;4994603;28;20236;-80
2022/01/14 05:17:58;;;;;;;6.55;5.38;;;;;;;;;;4994441;28;20203;-80
2022/01/14 05:20:27;;;;;;;6.43;5.60;;;;;;;;;;4994695;28;20887;-81
2022/01/14 05:22:54;;;;;;;5.90;5.03;;;;;;;;;;4993935;28;20207;-81
2022/01/14 05:25:21;;;;;;;6.55;5.50;;;;;;;;;;4994254;28;20734;-80
2022/01/14 05:27:49;;;;;;;5.75;5.13;;;;;;;;;;4994211;28;20234;-80
2022/01/14 05:30:17;;;;;;;6.07;5.22;;;;;;;;;;4993982;28;20203;-81
2022/01/14 05:32:47;;;;;;;7.72;6.53;;;;;;;;;;4993975;28;20235;-81
2022/01/14 05:35:16;;;;;;;8.02;6.65;;;;;;;;;;4994314;28;20318;-82
2022/01/14 05:37:45;;;;;;;6.03;4.85;;;;;;;;;;4994341;28;20278;-80
2022/01/14 05:40:14;;;;;;;7.82;5.38;;;;;;;;;;4994107;28;20223;-81
2022/01/14 05:42:42;;;;;;;6.55;5.78;;;;;;;;;;4993830;28;20691;-81
2022/01/14 05:45:12;;;;;;;6.38;5.00;;;;;;;;;;4994664;28;20730;-80
2022/01/14 05:47:40;;;;;;;5.28;4.43;;;;;;;;;;4994598;28;20203;-81
2022/01/14 05:50:12;;;;;;;4.40;4.00;;;;;;;;;;4995029;28;20206;-81
2022/01/14 05:52:39;;;;;;;3.88;3.47;;;;;;;;;;4994442;28;20242;-81
2022/01/14 05:55:12;;;;;;;5.20;4.70;;;;;;;;;;5002010;28;20239;-81
2022/01/14 05:57:39;;;;;;;4.95;4.55;;;;;;;;;;5004861;28;20207;-81
2022/01/14 06:00:09;;;;;;;6.22;5.03;;;;;;;;;;5004306;28;20227;-80
2022/01/14 06:02:36;;;;;;;5.25;4.45;;;;;;;;;;5002917;28;20204;-81
2022/01/14 06:05:04;;;;;;;6.32;5.47;;;;;;;;;;4995308;28;20703;-81
2022/01/14 06:07:32;;;;;;;6.07;5.47;;;;;;;;;;4994955;28;20204;-81
2022/01/14 06:09:59;;;;;;;8.02;6.80;;;;;;;;;;4995328;28;20211;-81
2022/01/14 06:12:28;;;;;;;5.38;4.05;;;;;;;;;;4995413;28;20742;-81
2022/01/14 06:14:55;;;;;;;6.97;6.05;;;;;;;;;;4995440;28;20739;-81
2022/01/14 06:17:23;;;;;;;7.13;5.15;;;;;;;;;;4995212;28;20211;-81
2022/01/14 06:19:50;;;;;;;6.53;5.82;;;;;;;;;;4994592;28;20227;-81
2022/01/14 06:22:17;;;;;;;8.70;6.65;;;;;;;;;;4994688;28;20261;-81
2022/01/14 06:24:45;;;;;;;6.93;5.68;;;;;;;;;;4994828;28;20224;-81
2022/01/14 06:27:12;;;;;;;5.57;5.05;;;;;;;;;;4995138;28;20212;-81
2022/01/14 06:29:41;;;;;;;5.35;4.30;;;;;;;;;;4994975;28;20667;-81
2022/01/14 06:32:09;;;;;;;5.90;4.05;;;;;;;;;;4994234;28;20259;-82
2022/01/14 06:34:36;;;;;;;4.45;3.70;;;;;;;;;;4994892;28;20234;-82
2022/01/14 06:37:04;;;;;;;3.70;3.40;;;;;;;;;;4998940;28;20262;-82
2022/01/14 06:39:31;;;;;;;4.50;3.22;;;;;;;;;;4997815;28;20254;-84
2022/01/14 06:41:58;;;;;;;5.90;5.30;;;;;;;;;;4997764;28;20196;-83
2022/01/14 06:44:25;;;;;;;7.15;5.40;;;;;;;;;;4997026;28;20273;-84
2022/01/14 06:46:54;;;;;;;7.55;5.75;;;;;;;;;;4997534;28;20200;-84
2022/01/14 06:49:21;;;;;;;5.55;4.85;;;;;;;;;;4997761;28;20710;-82
2022/01/14 06:51:49;;;;;;;6.15;4.65;;;;;;;;;;4997622;28;20203;-82
2022/01/14 06:54:16;;;;;;;4.18;3.88;;;;;;;;;;4998180;28;20632;-81
2022/01/14 06:56:43;;;;;;;3.75;3.33;;;;;;;;;;4997085;28;20656;-82
2022/01/14 06:59:10;;;;;;;3.35;3.05;;;;;;;;;;4998247;28;20207;-81
2022/01/14 07:01:38;;;;;;;4.40;3.53;;;;;;;;;;4997167;28;20227;-81
2022/01/14 07:04:06;;;;;;;4.60;4.05;;;;;;;;;;4997898;28;20210;-81
2022/01/14 07:06:34;;;;;;;3.60;3.30;;;;;;;;;;5008003;28;20320;-81
2022/01/14 07:09:01;;;;;;;4.57;4.13;;;;;;;;;;5016326;28;20211;-82
2022/01/14 07:11:34;;;;;;;4.28;3.88;;;;;;;;;;5016027;28;20209;-82
2022/01/14 07:14:02;;;;;;;6.53;5.43;;;;;;;;;;5017051;28;20271;-82
2022/01/14 07:16:29;;;;;;;5.88;5.25;;;;;;;;;;5016451;28;20258;-82
2022/01/14 07:18:56;;;;;;;4.20;3.80;;;;;;;;;;5017033;28;20257;-82
2022/01/14 07:21:25;;;;;;;4.10;3.70;;;;;;;;;;5016145;28;20218;-81
2022/01/14 07:23:52;;;;;;;4.95;4.15;;;;;;;;;;5016093;28;20615;-81
2022/01/14 07:26:21;;;;;;;4.57;3.90;;;;;;;;;;5015985;28;20223;-81
2022/01/14 07:28:48;;;;;;;5.70;4.45;;;;;;;;;;5016912;28;20246;-82
2022/01/14 07:31:15;;;;;;;4.25;3.40;;;;;;;;;;5016132;28;20582;-81
2022/01/14 07:33:42;;;;;;;5.00;3.95;;;;;;;;;;5015590;28;20639;-82
2022/01/14 07:36:10;;;;;;;2.80;2.55;;;;;;;;;;5016486;28;20278;-81
2022/01/14 07:38:38;;;;;;;3.00;2.80;;;;;;;;;;5016377;28;20344;-82
2022/01/14 07:41:06;;;;;;;3.00;2.70;;;;;;;;;;5016328;28;20703;-80
2022/01/14 07:43:35;;;;;;;2.78;2.53;;;;;;;;;;5016447;28;20606;-81
2022/01/14 07:46:02;;;;;;;3.03;2.45;;;;;;;;;;5015700;28;20318;-82
2022/01/14 07:48:30;;;;;;;2.95;2.65;;;;;;;;;;5015825;28;20206;-81
2022/01/14 07:50:57;;;;;;;3.58;3.13;;;;;;;;;;5015929;28;20195;-81
2022/01/14 07:53:24;;;;;;;4.25;3.85;;;;;;;;;;5015806;28;20671;-82
2022/01/14 07:55:53;;;;;;;3.30;2.95;;;;;;;;;;5015221;28;20230;-81
2022/01/14 07:58:20;;;;;;;4.13;3.42;;;;;;;;;;5015655;28;20210;-82
2022/01/14 08:00:48;;;;;;;6.07;4.75;;;;;;;;;;5015906;28;20219;-81
2022/01/14 08:03:15;;;;;;;9.43;7.28;;;;;;;;;;5016057;28;20203;-82
2022/01/14 08:05:44;;;;;;;8.27;5.95;;;;;;;;;;5016375;28;20599;-81
2022/01/14 08:08:12;;;;;;;10.40;7.30;;;;;;;;;;5016018;28;20301;-82
2022/01/14 08:10:39;;;;;;;5.60;4.80;;;;;;;;;;5016167;28;20303;-82
2022/01/14 08:13:08;;;;;;;9.25;6.75;;;;;;;;;;5015642;28;20608;-82
2022/01/14 08:15:35;;;;;;;8.65;6.97;;;;;;;;;;5015673;28;20222;-82
2022/01/14 08:18:03;;;;;;;7.68;5.22;;;;;;;;;;5015955;28;20203;-82
2022/01/14 08:20:30;;;;;;;4.45;4.03;;;;;;;;;;5015570;28;20213;-82
2022/01/14 08:22:58;;;;;;;6.15;5.47;;;;;;;;;;5015345;28;20203;-82
2022/01/14 08:25:25;;;;;;;7.70;5.55;;;;;;;;;;5015720;28;20223;-83
2022/01/14 08:27:53;;;;;;;10.00;7.13;;;;;;;;;;5015496;28;20203;-82
2022/01/14 08:30:22;;;;;;;9.93;7.95;;;;;;;;;;5015846;28;20706;-81
2022/01/14 08:32:50;;;;;;;6.65;6.05;;;;;;;;;;5014963;28;20266;-83
2022/01/14 08:35:17;;;;;;;5.60;5.05;;;;;;;;;;5015405;28;20223;-82
2022/01/14 08:37:44;;;;;;;9.02;7.55;;;;;;;;;;5015590;28;20199;-81
2022/01/14 08:40:12;;;;;;;7.78;6.15;;;;;;;;;;5015052;28;20205;-83
2022/01/14 08:42:40;;;;;;;10.48;7.63;;;;;;;;;;5007150;28;20226;-83
2022/01/14 08:45:08;;;;;;;6.03;5.15;;;;;;;;;;5016122;28;20610;-84
2022/01/14 08:47:37;;;;;;;6.18;4.45;;;;;;;;;;5015961;28;20230;-82
2022/01/14 08:50:05;;;;;;;5.55;5.00;;;;;;;;;;5015816;28;20199;-82
2022/01/14 08:52:33;;;;;;;5.70;4.18;;;;;;;;;;5015665;28;20199;-81
2022/01/14 08:55:00;;;;;;;4.88;4.40;;;;;;;;;;5015447;28;20232;-82
2022/01/14 08:57:27;;;;;;;5.28;4.78;;;;;;;;;;5015555;28;20203;-82
2022/01/14 08:59:55;;;;;;;5.47;4.53;;;;;;;;;;5016287;28;20301;-82
2022/01/14 09:02:22;;;;;;;3.47;3.20;;;;;;;;;;5015718;28;20654;-82
2022/01/14 09:04:51;;;;;;;7.40;6.28;;;;;;;;;;5014943;28;20234;-83
2022/01/14 09:07:18;;;;;;;7.35;6.30;;;;;;;;;;5015003;28;20757;-82
2022/01/14 09:09:45;;;;;;;6.63;5.93;;;;;;;;;;5014594;28;20261;-82
2022/01/14 09:12:15;;;;;;;5.00;4.00;;;;;;;;;;5014374;28;20211;-81
2022/01/14 09:14:43;;;;;;;5.78;5.00;;;;;;;;;;5014997;28;20210;-81
2022/01/14 09:17:10;;;;;;;10.15;8.20;;;;;;;;;;5015036;28;20210;-83
2022/01/14 09:19:38;;;;;;;8.57;6.53;;;;;;;;;;5014729;28;20663;-83
2022/01/14 09:22:07;;;;;;;9.88;8.40;;;;;;;;;;5015037;28;20827;-83
2022/01/14 09:24:35;;;;;;;9.75;8.20;;;;;;;;;;5015363;28;20198;-82
2022/01/14 09:27:02;;;;;;;10.00;7.63;;;;;;;;;;5015318;28;20203;-83
2022/01/14 09:29:33;;;;;;;9.63;7.65;;;;;;;;;;5014502;28;20656;-83
2022/01/14 09:32:00;;;;;;;9.07;7.78;;;;;;;;;;5014635;28;20213;-82
2022/01/14 09:34:27;;;;;;;7.30;6.05;;;;;;;;;;5014963;28;20666;-82
2022/01/14 09:36:55;;;;;;;7.63;6.30;;;;;;;;;;5015138;28;20674;-82
2022/01/14 09:39:23;;;;;;;9.60;7.57;;;;;;;;;;5014158;28;20697;-82
2022/01/14 09:41:51;;;;;;;7.03;6.32;;;;;;;;;;5014357;28;20379;-83
2022/01/14 09:44:20;;;;;;;10.05;6.22;;;;;;;;;;5015113;28;20335;-83
2022/01/14 09:46:49;;;;;;;6.97;6.13;;;;;;;;;;5014605;28;20714;-81
2022/01/14 09:49:20;;;;;;;8.30;6.20;;;;;;;;;;5014494;28;20214;-83
2022/01/14 09:51:50;;;;;;;5.32;4.82;;;;;;;;;;5014495;28;20207;-81
2022/01/14 09:54:17;;;;;;;5.82;5.20;;;;;;;;;;5014668;28;20238;-81
2022/01/14 09:56:46;;;;;;;5.82;4.53;;;;;;;;;;5014119;28;20219;-82
2022/01/14 09:59:16;;;;;;;6.82;5.30;;;;;;;;;;5014357;28;20629;-81
2022/01/14 10:01:45;;;;;;;9.27;8.23;;;;;;;;;;5015625;28;20219;-83
2022/01/14 10:04:16;;;;;;;9.23;8.05;;;;;;;;;;5014796;28;20194;-82
2022/01/14 10:06:45;;;;;;;6.13;5.53;;;;;;;;;;5014574;28;20234;-83
2022/01/14 10:09:16;;;;;;;8.05;6.55;;;;;;;;;;5014126;28;20233;-82
2022/01/14 10:12:02;;;;;;;7.95;6.32;;;;;;;;;;5018882;28;20637;-83
2022/01/14 10:14:32;;;;;;;6.70;5.03;;;;;;;;;;5037917;28;20206;-83
2022/01/14 10:17:01;;;;;;;5.47;4.97;;;;;;;;;;5038161;28;20206;-82
2022/01/14 10:19:31;;;;;;;9.15;7.93;;;;;;;;;;5038658;28;20229;-82
2022/01/14 10:21:58;;;;;;;7.07;5.97;;;;;;;;;;5037312;28;20218;-83
2022/01/14 10:24:31;;;;;;;7.40;5.75;;;;;;;;;;5038090;28;20205;-83
2022/01/14 10:27:03;;;;;;;10.18;8.50;;;;;;;;;;5038211;28;20290;-83
2022/01/14 10:29:35;;;;;;;11.10;8.88;;;;;;;;;;5038418;28;20216;-82
2022/01/14 10:32:04;;;;;;;12.05;9.07;;;;;;;;;;5037784;28;20198;-83
2022/01/14 10:34:31;;;;;;;18.90;11.88;;;;;;;;;;5037804;28;20704;-83
2022/01/14 10:37:12;;;;;;;10.35;7.88;;;;;;;;;;5022854;28;20265;-82
2022/01/14 10:39:46;;;;;;;13.88;9.60;;;;;;;;;;5018381;28;20203;-82
2022/01/14 10:42:31;;;;;;;17.60;11.70;;;;;;;;;;5017179;28;20706;-81
2022/01/14 10:45:20;;;;;;;15.45;10.38;;;;;;;;;;5017860;28;20226;-81
2022/01/14 10:47:57;;;;;;;13.60;8.88;;;;;;;;;;5018220;28;20203;-83
2022/01/14 10:50:31;;;;;;;14.73;10.35;;;;;;;;;;5018329;28;20206;-81
2022/01/14 10:52:58;;;;;;;15.90;11.30;;;;;;;;;;5017093;28;20211;-82
2022/01/14 10:55:32;;;;;;;14.23;10.38;;;;;;;;;;5017028;28;20215;-82
2022/01/14 10:58:03;;;;;;;14.63;10.82;;;;;;;;;;5016793;28;20475;-82
2022/01/14 11:00:38;;;;;;;16.02;12.48;;;;;;;;;;5017160;28;20203;-81
2022/01/14 11:03:06;;;;;;;16.50;11.07;;;;;;;;;;5017040;28;20309;-82
2022/01/14 11:05:34;;;;;;;16.25;12.50;;;;;;;;;;5016896;28;20725;-83
2022/01/14 11:08:03;;;;;;;13.65;10.50;;;;;;;;;;5017944;28;20229;-82
2022/01/14 11:10:33;;;;;;;15.00;10.88;;;;;;;;;;5017588;28;20261;-82
2022/01/14 11:13:03;;;;;;;16.30;12.38;;;;;;;;;;5017788;28;20679;-84
2022/01/14 11:15:33;;;;;;;11.48;7.88;;;;;;;;;;5018766;28;20230;-83
2022/01/14 11:18:04;;;;;;;13.10;10.48;;;;;;;;;;5017555;28;20587;-83
2022/01/14 11:20:36;;;;;;;9.77;8.18;;;;;;;;;;5017042;28;20203;-83
2022/01/14 11:23:15;;;;;;;11.52;8.95;;;;;;;;;;5016726;28;20218;-82
2022/01/14 11:25:50;;;;;;;11.10;7.57;;;;;;;;;;5018241;28;20599;-83
2022/01/14 11:28:25;;;;;;;10.35;7.18;;;;;;;;;;5018726;28;20203;-82
2022/01/14 11:30:52;;;;;;;10.05;8.27;;;;;;;;;;5016843;28;20222;-81
2022/01/14 11:33:20;;;;;;;8.93;7.78;;;;;;;;;;5016982;28;20592;-83
2022/01/14 11:35:56;;;;;;;9.15;7.65;;;;;;;;;;5016947;28;20227;-82
2022/01/14 11:38:40;;;;;;;8.20;5.97;;;;;;;;;;5016955;28;20640;-81
2022/01/14 11:41:08;;;;;;;12.05;7.50;;;;;;;;;;5015052;28;20211;-80
2022/01/14 11:43:43;;;;;;;8.45;6.78;;;;;;;;;;5018351;28;20226;-80
2022/01/14 11:46:13;;;;;;;8.60;7.55;;;;;;;;;;5016381;28;20570;-81
2022/01/14 11:48:46;;;;;;;8.68;7.72;;;;;;;;;;5018156;28;20342;-81
2022/01/14 11:51:16;;;;;;;9.07;6.63;;;;;;;;;;5016478;28;20222;-81
2022/01/14 11:53:52;;;;;;;10.30;7.03;;;;;;;;;;5016448;28;20211;-80
2022/01/14 11:56:48;;;;;;;8.23;6.50;;;;;;;;;;5015764;28;20233;-83
2022/01/14 11:59:44;;;;;;;8.55;6.72;;;;;;;;;;5016295;28;20210;-82
2022/01/14 12:02:32;;;;;;;6.80;6.05;;;;;;;;;;5015662;28;20207;-82
2022/01/14 12:05:23;;;;;;;7.97;6.10;;;;;;;;;;5005271;28;20231;-82
2022/01/14 12:08:25;;;;;;;9.13;7.25;;;;;;;;;;5015703;28;20265;-82
2022/01/14 12:11:20;;;;;;;9.38;7.78;;;;;;;;;;5015624;28;20206;-85
2022/01/14 12:14:04;;;;;;;7.50;6.40;;;;;;;;;;5016980;28;20286;-82
2022/01/14 12:16:49;;;;;;;9.82;8.02;;;;;;;;;;5016988;28;20231;-84
2022/01/14 12:19:19;;;;;;;10.45;7.82;;;;;;;;;;5016311;28;20203;-85
2022/01/14 12:22:02;;;;;;;9.45;7.35;;;;;;;;;;5016049;28;20199;-84
2022/01/14 12:24:53;;;;;;;10.07;7.75;;;;;;;;;;5016190;28;20699;-84
2022/01/14 12:27:43;;;;;;;6.90;6.20;;;;;;;;;;5016381;28;20675;-83
2022/01/14 12:30:31;;;;;;;9.32;7.50;;;;;;;;;;5021461;28;20207;-83
2022/01/14 12:33:00;;;;;;;8.73;6.88;;;;;;;;;;5012171;28;20219;-83
2022/01/14 12:35:33;;;;;;;6.88;5.97;;;;;;;;;;5027368;28;20258;-83
2022/01/14 12:38:01;;;;;;;9.80;6.40;;;;;;;;;;5027528;28;20214;-84
2022/01/14 12:40:36;;;;;;;6.90;5.60;;;;;;;;;;5026032;28;20209;-83
2022/01/14 12:43:06;;;;;;;9.65;6.88;;;;;;;;;;5026218;28;20202;-83
2022/01/14 12:45:41;;;;;;;10.88;6.38;;;;;;;;;;5026824;28;20295;-83
2022/01/14 12:48:29;;;;;;;9.32;6.88;;;;;;;;;;5026724;28;20218;-83
2022/01/14 12:51:12;;;;;;;7.95;6.43;;;;;;;;;;5027343;28;20210;-82
2022/01/14 12:53:53;;;;;;;7.53;5.95;;;;;;;;;;5026412;28;20198;-82
2022/01/14 12:56:23;;;;;;;7.47;6.60;;;;;;;;;;5025528;28;20223;-82
2022/01/14 12:58:57;;;;;;;8.07;6.53;;;;;;;;;;5026230;28;20214;-83
2022/01/14 13:01:32;;;;;;;7.45;6.22;;;;;;;;;;5026443;28;20686;-83
2022/01/14 13:04:04;;;;;;;5.35;4.85;;;;;;;;;;5026409;28;20221;-83
2022/01/14 13:06:48;;;;;;;6.82;5.70;;;;;;;;;;5026701;28;20229;-83
2022/01/14 13:09:20;;;;;;;6.78;5.95;;;;;;;;;;5026962;28;20209;-83
2022/01/14 13:11:53;;;;;;;6.25;5.22;;;;;;;;;;5026471;28;20203;-83
2022/01/14 13:14:26;;;;;;;6.85;6.15;;;;;;;;;;5026621;28;20199;-82
2022/01/14 13:16:55;;;;;;;10.85;7.15;;;;;;;;;;5026069;28;20214;-82
2022/01/14 13:19:30;;;;;;;5.32;4.57;;;;;;;;;;5025456;28;20604;-81
2022/01/14 13:21:59;;;;;;;7.50;6.25;;;;;;;;;;5026302;28;20214;-83
2022/01/14 13:24:28;;;;;;;6.38;5.75;;;;;;;;;;5025422;28;20273;-83
2022/01/14 13:27:05;;;;;;;5.97;5.03;;;;;;;;;;5024757;28;20195;-84
2022/01/14 13:29:43;;;;;;;7.25;5.85;;;;;;;;;;5025401;28;20217;-81
2022/01/14 13:32:12;;;;;;;6.25;5.65;;;;;;;;;;5024636;28;20207;-81
2022/01/14 13:34:47;;;;;;;10.85;7.13;;;;;;;;;;5024670;28;20202;-83
2022/01/14 13:37:17;;;;;;;7.60;6.43;;;;;;;;;;5024818;28;20198;-82
2022/01/14 13:39:44;;;;;;;8.05;6.53;;;;;;;;;;5023580;28;20210;-81
2022/01/14 13:42:25;;;;;;;7.60;5.65;;;;;;;;;;5023887;28;20207;-81
2022/01/14 13:44:53;;;;;;;9.05;6.65;;;;;;;;;;5022934;28;20223;-82
2022/01/14 13:47:23;;;;;;;7.38;6.43;;;;;;;;;;5023305;28;20267;-82
2022/01/14 13:50:15;;;;;;;8.98;7.10;;;;;;;;;;5023025;28;20580;-82
2022/01/14 13:52:45;;;;;;;5.90;5.22;;;;;;;;;;5022213;28;20207;-82
2022/01/14 13:55:14;;;;;;;7.90;6.00;;;;;;;;;;5019747;28;20249;-81
2022/01/14 13:57:42;;;;;;;7.05;6.30;;;;;;;;;;5022875;28;20582;-81
2022/01/14 14:00:14;;;;;;;6.15;4.63;;;;;;;;;;5022403;28;20640;-81
2022/01/14 14:02:52;;;;;;;8.38;7.47;;;;;;;;;;5021354;28;20203;-82
2022/01/14 14:05:38;;;;;;;8.27;7.22;;;;;;;;;;5021556;28;20230;-81
2022/01/14 14:08:12;;;;;;;8.77;7.63;;;;;;;;;;5021275;28;20238;-82
2022/01/14 14:16:30;;;;;;;7.85;6.88;;;;;;;;;;5019720;28;20258;-81
2022/01/14 14:18:59;;;;;;;8.35;6.75;;;;;;;;;;5021817;28;20614;-82
2022/01/14 14:21:33;;;;;;;8.98;7.93;;;;;;;;;;5021825;28;20569;-82
2022/01/14 14:24:02;;;;;;;10.02;7.65;;;;;;;;;;5022051;28;20285;-82
2022/01/14 14:26:32;;;;;;;11.30;9.45;;;;;;;;;;5022628;28;20290;-81
2022/01/14 14:29:02;;;;;;;7.28;6.07;;;;;;;;;;5023034;28;20211;-82
2022/01/14 14:31:31;;;;;;;6.72;5.15;;;;;;;;;;5022629;28;20228;-81
2022/01/14 14:33:59;;;;;;;7.50;6.80;;;;;;;;;;5022327;28;20211;-83
2022/01/14 14:36:30;;;;;;;7.57;6.13;;;;;;;;;;5022219;28;20725;-81
2022/01/14 14:38:57;;;;;;;7.53;6.78;;;;;;;;;;5022683;28;20416;-81
2022/01/14 14:41:24;;;;;;;11.68;8.63;;;;;;;;;;5021973;28;20670;-81
2022/01/14 14:43:52;;;;;;;10.15;7.70;;;;;;;;;;5022385;28;20203;-81
2022/01/14 14:46:20;;;;;;;9.43;7.80;;;;;;;;;;5021810;28;20656;-82
2022/01/14 14:48:48;;;;;;;9.13;6.75;;;;;;;;;;5023396;28;20647;-82
2022/01/14 14:51:15;;;;;;;7.20;5.40;;;;;;;;;;5022172;28;20214;-82
2022/01/14 14:53:44;;;;;;;6.80;5.95;;;;;;;;;;5022035;28;20207;-82
2022/01/14 14:56:11;;;;;;;8.95;6.65;;;;;;;;;;5023357;28;20226;-83
2022/01/14 14:58:39;;;;;;;7.93;6.68;;;;;;;;;;5025311;28;20207;-82
2022/01/14 15:01:09;;;;;;;9.93;6.75;;;;;;;;;;5026095;28;20222;-80
2022/01/14 15:03:38;;;;;;;8.55;6.50;;;;;;;;;;5025854;28;20199;-82
2022/01/14 15:06:08;;;;;;;6.35;5.60;;;;;;;;;;5025567;28;20239;-83
2022/01/14 15:08:35;;;;;;;8.35;7.05;;;;;;;;;;5025499;28;20210;-82
2022/01/14 15:11:04;;;;;;;9.70;7.97;;;;;;;;;;5025622;28;20215;-82
2022/01/14 15:13:31;;;;;;;5.63;5.13;;;;;;;;;;5025279;28;20230;-82
2022/01/14 15:16:24;;;;;;;6.75;5.40;;;;;;;;;;5025733;28;20227;-81
2022/01/14 15:18:52;;;;;;;7.15;6.18;;;;;;;;;;5025570;28;20297;-82
2022/01/14 15:21:19;;;;;;;8.93;7.10;;;;;;;;;;5025548;28;20209;-82